Enderlin, North Dakota
Current Conditions -  °F | °C
As of 9:15 PM on Friday 31 Oct 2014 (Local Time) from KGWR Reporting Station
Clear Clear  
Wind Chill: 22°   Ceiling: Unl
Heat Index: 32°   Visibility: 10mi
Dew Point: 21°   Wind: 14mph
Humidity: 64%   Direction: 140°SE
Pressure: 30.35"   Gusts: NA
Location:  46.62°N, 97.6°W
Report Text: KGWR 010215Z AUTO 14012KT 10SM CLR 00/M06 A3035 RMK A01 P000
Loading
Personal Weather Stations






























Interactive Weather Map New forecast layout! Learn more

10-Day Weather Forecast

Advertisements
Track Severe Weather on mobile